Flight Track Log - Related Links

Times and Time Zones

All times are in EDT time to prevent confusion due to time zone crossing. See the UPS1121 flight status page for this flight to view local times or setup timezone preferences in your user account.

Time Position Orientation Groundspeed Altitude Reporting Facility
EDT Latitude Longitude Course Direction KTS MPH feet Rate Location/Type
Mon 10:17:05 PM 41.9436 -72.6997 36° Northeast 152 175 1,300  Level Boston Center
Mon 10:18:00 PM 41.9772 -72.6664 36° Northeast 216 249 3,700 2,291 Climbing Boston Center
Mon 10:18:55 PM 41.9375 -72.6186 138° Southeast 233 268 5,500 2,765 Climbing Boston Center
Mon 10:19:55 PM 41.8583 -72.5739 157° South 264 304 9,000 2,950 Climbing Boston Center
Mon 10:20:55 PM 41.7897 -72.5292 154° Southeast 299 344 11,400 2,500 Climbing Boston Center
Mon 10:21:55 PM 41.6939 -72.4678 154° Southeast 343 395 14,000 1,310 Climbing Boston Center
Mon 10:27:29 PM 41.1320 -72.5250 154° Southeast 386 444 20,000 973 Climbing FlightAware ADS-B
Mon 10:28:05 PM 41.0870 -72.5880 227° Southwest 387 445 20,000  Level FlightAware ADS-B
Mon 10:28:48 PM 41.0310 -72.6640 226° Southwest 391 450 20,000  Level FlightAware ADS-B
Mon 10:29:20 PM 40.9897 -72.7202 226° Southwest 396 456 20,000  Level FlightAware ADS-B
Mon 10:30:18 PM 40.9180 -72.8230 227° Southwest 395 455 20,000  Level FlightAware ADS-B
Mon 10:30:37 PM 40.8964 -72.8575 230° Southwest 396 456 20,000  Level FlightAware ADS-B
Mon 10:31:44 PM 40.7979 -72.9542 217° Southwest 397 457 20,000  Level FlightAware ADS-B
Mon 10:32:14 PM 40.7474 -72.9869 206° Southwest 397 457 20,000  Level FlightAware ADS-B
Mon 10:32:45 PM 40.6967 -73.0196 206° Southwest 395 455 20,000  Level FlightAware ADS-B
Mon 10:33:25 PM 40.6306 -73.0627 206° Southwest 394 453 20,000  Level FlightAware ADS-B
Mon 10:33:55 PM 40.5808 -73.0953 206° Southwest 393 452 20,000  Level FlightAware ADS-B
Mon 10:34:27 PM 40.5290 -73.1296 207° Southwest 392 451 20,000  Level FlightAware ADS-B
Mon 10:34:58 PM 40.4797 -73.1626 207° Southwest 391 450 20,000  Level FlightAware ADS-B
Mon 10:35:32 PM 40.4236 -73.2004 207° Southwest 390 449 20,000  Level FlightAware ADS-B
Mon 10:36:09 PM 40.3641 -73.2404 207° Southwest 390 449 20,000 -88 Level FlightAware ADS-B
Mon 10:36:40 PM 40.3140 -73.2739 207° Southwest 386 444 19,900 -774 Descending FlightAware ADS-B
Mon 10:37:11 PM 40.2657 -73.3060 207° Southwest 386 444 19,200 -1,333 Descending FlightAware ADS-B
Mon 10:37:43 PM 40.2148 -73.3399 207° Southwest 382 440 18,500 -1,065 Descending FlightAware ADS-B
Mon 10:38:13 PM 40.1670 -73.3713 207° Southwest 375 432 18,100 -933 Descending FlightAware ADS-B
Mon 10:38:28 PM 40.1427 -73.3861 205° Southwest 375 432 17,800 -1,091 Descending FlightAware ADS-B
Mon 10:38:35 PM 40.1312 -73.3912 199° South 376 433 17,700 -1,135 Descending FlightAware ADS-B
Mon 10:39:05 PM 40.0806 -73.4086 195° South 376 433 17,100 -1,235 Descending FlightAware ADS-B
Mon 10:39:09 PM 40.0749 -73.4105 194° South 376 433 17,000 -1,077 Descending FlightAware ADS-B
Mon 10:39:44 PM 40.0185 -73.4363 199° South 373 429 16,400 -1,143 Descending FlightAware ADS-B
Mon 10:39:51 PM 40.0085 -73.4445 212° Southwest 361 415 16,200 -1,385 Descending FlightAware ADS-B
Mon 10:39:57 PM 39.9997 -73.4530 216° Southwest 359 413 16,100 -783 Descending FlightAware ADS-B
Mon 10:40:14 PM 39.9804 -73.4777 224° Southwest 354 407 15,900 -255 Descending FlightAware ADS-B
Mon 10:40:44 PM 39.9477 -73.5259 229° Southwest 354 407 15,900  Level FlightAware ADS-B
Mon 10:41:30 PM 39.8962 -73.6023 229° Southwest 367 422 15,900  Level FlightAware ADS-B
Mon 10:42:03 PM 39.8597 -73.6556 228° Southwest 364 419 15,900  Level FlightAware ADS-B
Mon 10:42:35 PM 39.8236 -73.7079 228° Southwest 364 419 15,900  Level FlightAware ADS-B
Mon 10:43:07 PM 39.7879 -73.7593 228° Southwest 354 407 15,900  Level FlightAware ADS-B
Mon 10:43:39 PM 39.7524 -73.8103 228° Southwest 349 402 15,900  Level FlightAware ADS-B
Mon 10:44:10 PM 39.7191 -73.8585 228° Southwest 348 400 15,900  Level FlightAware ADS-B
Mon 10:44:40 PM 39.6865 -73.9051 228° Southwest 351 404 15,900  Level FlightAware ADS-B
Mon 10:45:11 PM 39.6534 -73.9532 228° Southwest 351 404 15,900  Level FlightAware ADS-B
Mon 10:45:42 PM 39.6200 -74.0016 228° Southwest 351 404 15,900 -98 Level FlightAware ADS-B
Mon 10:46:12 PM 39.5864 -74.0502 228° Southwest 359 413 15,800 -900 Descending FlightAware ADS-B
Mon 10:46:42 PM 39.5534 -74.0978 228° Southwest 350 403 15,000 -1,800 Descending FlightAware ADS-B
Mon 10:46:52 PM 39.5431 -74.1134 229° Southwest 347 399 14,600 -2,400 Descending FlightAware ADS-B
Mon 10:47:02 PM 39.5348 -74.1306 238° Southwest 344 396 14,200 -1,875 Descending FlightAware ADS-B
Mon 10:47:08 PM 39.5309 -74.1419 246° West 343 395 14,100 -800 Descending FlightAware ADS-B
Mon 10:47:17 PM 39.5267 -74.1601 253° West 343 395 14,000 -480 Descending FlightAware ADS-B
Mon 10:47:33 PM 39.5247 -74.1929 265° West 343 395 13,900 -511 Descending FlightAware ADS-B
Mon 10:48:04 PM 39.5254 -74.2559 271° West 336 387 13,600 -1,333 Descending FlightAware ADS-B
Mon 10:48:45 PM 39.5271 -74.3402 272° West 338 389 12,300 -1,562 Descending FlightAware ADS-B
Mon 10:49:17 PM 39.5280 -74.4037 271° West 337 388 11,700 -1,031 Descending FlightAware ADS-B
Mon 10:49:49 PM 39.5289 -74.4682 271° West 328 377 11,200 -971 Descending FlightAware ADS-B
Mon 10:50:25 PM 39.5301 -74.5367 271° West 307 353 10,600 -870 Descending FlightAware ADS-B
Mon 10:50:58 PM 39.5311 -74.5934 271° West 284 327 10,200 -735 Descending FlightAware ADS-B
Mon 10:51:14 PM 39.5316 -74.6202 271° West 275 316 10,000 -1,167 Descending FlightAware ADS-B
Mon 10:51:34 PM 39.5321 -74.6521 271° West 271 312 9,500 -1,500 Descending FlightAware ADS-B
Mon 10:51:50 PM 39.5325 -74.6775 271° West 269 310 9,100 -1,161 Descending FlightAware ADS-B
Mon 10:52:05 PM 39.5329 -74.7018 271° West 271 312 8,900 -400 Descending FlightAware ADS-B
Mon 10:52:20 PM 39.5333 -74.7264 271° West 270 311 8,900  Level FlightAware ADS-B
Mon 10:52:35 PM 39.5337 -74.7513 271° West 268 308 8,900  Level FlightAware ADS-B
Mon 10:52:51 PM 39.5341 -74.7761 271° West 267 307 8,900  Level FlightAware ADS-B
Mon 10:53:06 PM 39.5343 -74.8001 271° West 268 308 8,900  Level FlightAware ADS-B
Mon 10:53:21 PM 39.5345 -74.8253 271° West 268 308 8,900  Level FlightAware ADS-B
Mon 10:53:37 PM 39.5348 -74.8507 271° West 269 310 8,900  Level FlightAware ADS-B
Mon 10:53:52 PM 39.5350 -74.8757 271° West 269 310 8,900  Level FlightAware ADS-B
Mon 10:54:07 PM 39.5352 -74.8998 271° West 268 308 8,900  Level FlightAware ADS-B
Mon 10:54:22 PM 39.5354 -74.9240 271° West 268 308 8,900 -250 Level FlightAware ADS-B
Mon 10:54:31 PM 39.5358 -74.9374 272° West 266 306 8,800 -1,125 Descending FlightAware ADS-B
Mon 10:54:38 PM 39.5373 -74.9486 280° West 265 305 8,600 -1,636 Descending FlightAware ADS-B
Mon 10:54:42 PM 39.5387 -74.9551 286° West 265 305 8,500 -1,333 Descending FlightAware ADS-B
Mon 10:54:47 PM 39.5411 -74.9623 293° West 264 304 8,400 -1,500 Descending FlightAware ADS-B
Mon 10:54:50 PM 39.5429 -74.9669 297° West 265 305 8,300 -1,500 Descending FlightAware ADS-B
Mon 10:54:55 PM 39.5461 -74.9729 305° West 266 306 8,200 -1,200 Descending FlightAware ADS-B
Mon 10:55:00 PM 39.5497 -74.9785 310° West 266 306 8,100 -1,200 Descending FlightAware ADS-B
Mon 10:55:05 PM 39.5545 -74.9841 318° Northwest 267 307 8,000 -1,500 Descending FlightAware ADS-B
Mon 10:55:08 PM 39.5579 -74.9874 323° Northwest 269 310 7,900 -2,000 Descending FlightAware ADS-B
Mon 10:55:11 PM 39.5613 -74.9900 329° Northwest 269 310 7,800 -1,714 Descending FlightAware ADS-B
Mon 10:55:15 PM 39.5653 -74.9926 333° Northwest 270 311 7,700 -1,500 Descending FlightAware ADS-B
Mon 10:55:19 PM 39.5703 -74.9949 340° North 271 312 7,600 -1,333 Descending FlightAware ADS-B
Mon 10:55:24 PM 39.5762 -74.9970 345° North 272 313 7,500 -1,429 Descending FlightAware ADS-B
Mon 10:55:40 PM 39.5957 -75.0028 347° North 273 314 7,100 -1,548 Descending FlightAware ADS-B
Mon 10:55:55 PM 39.6145 -75.0079 348° North 272 313 6,700 -1,400 Descending FlightAware ADS-B
Mon 10:56:10 PM 39.6331 -75.0130 348° North 272 313 6,400 -1,313 Descending FlightAware ADS-B
Mon 10:56:27 PM 39.6535 -75.0188 348° North 272 313 6,000 -1,000 Descending FlightAware ADS-B
Mon 10:56:40 PM 39.6695 -75.0234 348° North 274 315 5,900 -429 Descending FlightAware ADS-B
Mon 10:56:55 PM 39.6883 -75.0289 347° North 271 312 5,800 -774 Descending FlightAware ADS-B
Mon 10:57:11 PM 39.7076 -75.0344 348° North 269 310 5,500 -1,200 Descending FlightAware ADS-B
Mon 10:57:15 PM 39.7131 -75.0354 352° North 270 311 5,400 -1,200 Descending FlightAware ADS-B
Mon 10:57:21 PM 39.7208 -75.0354 360° North 270 311 5,300 -1,333 Descending FlightAware ADS-B
Mon 10:57:24 PM 39.7246 -75.0348 North 271 312 5,200 -1,500 Descending FlightAware ADS-B
Mon 10:57:29 PM 39.7300 -75.0332 13° North 272 313 5,100 -1,091 Descending FlightAware ADS-B
Mon 10:57:35 PM 39.7374 -75.0299 19° North 272 313 5,000 -1,200 Descending FlightAware ADS-B
Mon 10:57:39 PM 39.7424 -75.0274 21° North 272 313 4,900 -1,091 Descending FlightAware ADS-B
Mon 10:57:57 PM 39.7635 -75.0161 22° Northeast 268 308 4,600 -882 Descending FlightAware ADS-B
Mon 10:58:13 PM 39.7816 -75.0062 23° Northeast 262 302 4,400 -581 Descending FlightAware ADS-B
Mon 10:58:28 PM 39.7980 -74.9971 23° Northeast 254 292 4,300 -429 Descending FlightAware ADS-B
Mon 10:58:55 PM 39.8259 -74.9817 23° Northeast 242 278 4,100 -600 Descending FlightAware ADS-B
Mon 10:59:08 PM 39.8395 -74.9742 23° Northeast 236 272 3,900 -462 Descending FlightAware ADS-B
Mon 10:59:21 PM 39.8528 -74.9669 23° Northeast 227 261 3,900  Level FlightAware ADS-B
Mon 10:59:37 PM 39.8672 -74.9588 23° Northeast 217 250 3,900 -188 Level FlightAware ADS-B
Mon 10:59:53 PM 39.8819 -74.9506 23° Northeast 212 244 3,800 -545 Descending FlightAware ADS-B
Mon 10:59:59 PM 39.8871 -74.9478 22° Northeast 210 242 3,700 -1,333 Descending FlightAware ADS-B
Mon 11:00:02 PM 39.8902 -74.9465 18° North 209 241 3,600 -2,000 Descending FlightAware ADS-B
Mon 11:00:05 PM 39.8933 -74.9457 11° North 206 237 3,500 -1,000 Descending FlightAware ADS-B
Mon 11:00:08 PM 39.8961 -74.9454 North 204 235 3,500 -1,500 Level FlightAware ADS-B
Mon 11:00:13 PM 39.9002 -74.9457 357° North 200 230 3,300 -1,333 Descending FlightAware ADS-B
Mon 11:00:17 PM 39.9039 -74.9470 345° North 196 226 3,300 -857 Level FlightAware ADS-B
Mon 11:00:20 PM 39.9067 -74.9486 336° Northwest 193 222 3,200 -1,000 Descending FlightAware ADS-B
Mon 11:00:23 PM 39.9090 -74.9504 329° Northwest 189 217 3,200 -857 Level FlightAware ADS-B
Mon 11:00:27 PM 39.9114 -74.9531 319° Northwest 185 213 3,100 -857 Descending FlightAware ADS-B
Mon 11:00:30 PM 39.9134 -74.9561 311° West 182 209 3,100  Level FlightAware ADS-B
Mon 11:00:34 PM 39.9152 -74.9596 304° West 180 207 3,100 -667 Level FlightAware ADS-B
Mon 11:00:39 PM 39.9171 -74.9644 297° West 177 204 3,000 -667 Descending FlightAware ADS-B
Mon 11:00:43 PM 39.9180 -74.9678 289° West 175 201 3,000  Level FlightAware ADS-B
Mon 11:00:46 PM 39.9188 -74.9713 287° West 174 200 3,000 -600 Level FlightAware ADS-B
Mon 11:00:53 PM 39.9197 -74.9789 279° West 172 198 2,900 -545 Descending FlightAware ADS-B
Mon 11:00:57 PM 39.9198 -74.9823 272° West 171 197 2,900  Level FlightAware ADS-B
Mon 11:01:00 PM 39.9198 -74.9862 270° West 170 196 2,900  Level FlightAware ADS-B
Mon 11:01:09 PM 39.9192 -74.9949 265° West 168 193 2,900  Level FlightAware ADS-B
Mon 11:01:18 PM 39.9182 -75.0035 261° West 167 192 2,900  Level FlightAware ADS-B
Mon 11:01:24 PM 39.9173 -75.0099 260° West 167 192 2,900  Level FlightAware ADS-B
Mon 11:01:32 PM 39.9159 -75.0178 257° West 166 191 2,900 -364 Level FlightAware ADS-B
Mon 11:01:57 PM 39.9111 -75.0425 256° West 169 194 2,700 -750 Descending FlightAware ADS-B
Mon 11:02:04 PM 39.9098 -75.0492 256° West 166 191 2,500 -1,091 Descending FlightAware ADS-B
Mon 11:02:19 PM 39.9070 -75.0634 256° West 157 181 2,300 -800 Descending FlightAware ADS-B
Mon 11:02:34 PM 39.9043 -75.0768 255° West 146 168 2,100 -774 Descending FlightAware ADS-B
Mon 11:02:50 PM 39.9017 -75.0899 255° West 134 154 1,900 -621 Descending FlightAware ADS-B
Mon 11:03:03 PM 39.8997 -75.0995 255° West 125 144 1,800 -462 Descending FlightAware ADS-B
Mon 11:03:16 PM 39.8980 -75.1086 256° West 123 142 1,700 -600 Descending FlightAware ADS-B
Mon 11:03:33 PM 39.8956 -75.1206 255° West 122 140 1,500 -643 Descending FlightAware ADS-B
Mon 11:03:44 PM 39.8939 -75.1284 254° West 121 139 1,400 -667 Descending FlightAware ADS-B
Mon 11:04:00 PM 39.8917 -75.1396 256° West 113 130 1,200 -563 Descending FlightAware ADS-B
Mon 11:04:16 PM 39.8899 -75.1490 256° West 104 120 1,100 -600 Descending FlightAware ADS-B
Mon 11:04:30 PM 39.8881 -75.1579 255° West 105 121 900 -621 Descending FlightAware ADS-B
Mon 11:04:45 PM 39.8864 -75.1669 256° West 107 123 800 -286 Descending FlightAware ADS-B
Mon 11:04:51 PM 39.8856 -75.1706 254° West 107 123 800 -545 Level FlightAware ADS-B
Mon 11:05:07 PM 39.8836 -75.1808 256° West 110 127 600 -706 Descending FlightAware ADS-B
Mon 11:05:25 PM 39.8815 -75.1922 257° West 109 125 400 -429 Descending FlightAware ADS-B
Mon 11:05:35 PM 39.8803 -75.1983 256° West 111 128 400 -143 Level FlightAware ADS-B
Mon 11:06:07 PM 39.8780 -75.2130 258° West 108 124 300 -188 Descending FlightAware ADS-B

Login

Don't have an account? Register now (free) for customized features, flight alerts, and more!